KATW/ATW METAR and TAF weather

Enter ICAO airport designator
Station Type Date Time Source
KATW METAR 2018/09/21 22:45 UTC NOAA

KATW 212245Z 32014G20KT 10SM BKN045 13/03 A3012


Station Type Date Time Source
KATW Decoded METAR 2018/09/21 22:45 UTC NOAA

Appleton / Outagamie, WI, United States (KATW) 44-15N 088-31W
Sep 21, 2018 - 06:45 PM EDT / 2018.09.21 2245 UTC
Wind: from the NW (320 degrees) at 16 MPH (14 KT) gusting to 23 MPH (20 KT):0
Visibility: 10 mile(s):0
Sky conditions: mostly cloudy
Temperature: 55 F (13 C)
Dew Point: 37 F (3 C)
Relative Humidity: 50%
Pressure (altimeter): 30.12 in. Hg (1019 hPa)
ob: KATW 212245Z 32014G20KT 10SM BKN045 13/03 A3012
cycle: 23

Station Type Date Time Source
KATW TAF 2018/09/21 18:36 UTC NOAA

TAF KATW 211733Z 2118/2218 27022G33KT P6SM BKN028
FM212100 32019G30KT P6SM BKN040
FM212300 32014KT P6SM SCT045
FM220200 32005KT P6SM FEW150
FM221300 20006KT P6SM SKC


Example: see airport list